Terminal Aerodrome Forecast
Issued by NWS Topeka, KS

Home | Current Version | Previous Version | Graphics & Text | Print | Product List | Glossary On
Versions: 1 2 3 4 5 6 7 8 9 10 11 12 13 14 15 16 17 18 19 20 21 22 23 24
000
FTUS43 KTOP 161100
TAFTOP
TAF
KTOP 161137Z 1612/1712 09003KT P6SM MIFG SKC
      TEMPO 1612/1613 2SM BR
     FM161400 12006KT P6SM FEW150
     FM170100 10004KT P6SM BKN050=

USA.gov is the U.S. government's official web portal to all federal, state and local government web resources and services.